AGROMETEOROLOŠKI PORTAL

vinorodna pokrajina

Temelj dobrega kmetovanja

Pregled podatkov za lokacijo NOVA VAS - BLOKE - ARSO, meteorološka postaja 155

Pregled senzorjev na lokaciji

ID Ime Zadnja
vrednost
Datum in čas
meritve
(lokalni čas)
Tip
senzorja
5978 Padavine (mm) 0 mm 4.10.2022 16:00 ARSO
5980 Relativna zračna vlaga (2 m) (% RH) 62 % RH 4.10.2022 16:00 ARSO
5979 Temperatura (2 m) (°C) 17 °C 4.10.2022 16:00 ARSO

Pregled podatkov zadnjih 24 ur

Zap.
št.
Datum in čas
(lokalni čas)
NOVA VAS - BLOKE - ARSO
Padavine Relativna
zračna
vlaga
(2
m)
Temperatura
(2
m)
1 4.10.2022 16:00 0 62 17
2 4.10.2022 15:30 0 61,7 17,2
3 4.10.2022 15:00 0 62 17
4 4.10.2022 14:30 0 64 16,5
5 4.10.2022 14:00 0 66,3 15,5
6 4.10.2022 13:30 0 65,3 15,5
7 4.10.2022 13:00 0 65,7 14,5
8 4.10.2022 12:30 0 65 13,8
9 4.10.2022 12:00 0 62,3 13,6
10 4.10.2022 11:30 0 65 12,5
11 4.10.2022 11:00 0 70 11,3
12 4.10.2022 10:30 0 70,3 10,7
13 4.10.2022 10:00 0 78,7 10,1
14 4.10.2022 09:30 0 84,7 8,6
15 4.10.2022 09:00 0 90,7 7,1
16 4.10.2022 08:30 0 91,3 6,3
17 4.10.2022 08:00 0 91,7 5,7
18 4.10.2022 07:30 0 93 5
19 4.10.2022 07:00 0 91,3 4,6
20 4.10.2022 06:30 0 90,7 5
21 4.10.2022 06:00 0 90 5,1
22 4.10.2022 05:30 0 90,3 4,8
23 4.10.2022 05:00 0 90,7 4,9
24 4.10.2022 04:30 0 89 5,2
25 4.10.2022 04:00 0 86 5,7
26 4.10.2022 03:30 0 80,3 7,1
27 4.10.2022 03:00 0 79,3 7,6
28 4.10.2022 02:30 0 88,5 6,6
29 4.10.2022 02:00 0 93,7 5,5
30 4.10.2022 01:30 0 95,7 4,8
31 4.10.2022 01:00 0 95,3 5,3
32 4.10.2022 00:30 0 95,7 5,5
33 4.10.2022 00:00 0 95,3 5,6
34 3.10.2022 23:30 0 95 5,3
35 3.10.2022 23:00 0 95 5,6
36 3.10.2022 22:30 0 93,7 5,5
37 3.10.2022 22:00 0 93,3 6,1
38 3.10.2022 21:30 0 92 6,8
39 3.10.2022 21:00 0 91,3 7,5
40 3.10.2022 20:30 0 88,7 8,4
41 3.10.2022 20:00 0 85,3 9,5
42 3.10.2022 19:30 0 79 10,8
43 3.10.2022 19:00 0 72,7 12,2
44 3.10.2022 18:30 0 68,3 13,6
45 3.10.2022 18:00 0 60 15,4
46 3.10.2022 17:30 0 52,3 16,5